Time;durP1;ratioP1;P1;durP2;ratioP2;P2;SDS_P1;SDS_P2;PMS_P1;PMS_P2;Temp;Humidity;BMP_temperature;BMP_pressure;BME280_temperature;BME280_humidity;BME280_pressure;Samples;Min_cycle;Max_cycle;Signal;HPM_P1;HPM_P2
2023/09/13 00:01:27;;;;;;;40.80;6.37;;;;;;;24.14;60.23;98924.53;7308599;19;129595;-39
2023/09/13 00:03:53;;;;;;;59.30;7.87;;;;;;;24.28;60.34;98943.00;7309548;19;128955;-38
2023/09/13 00:06:18;;;;;;;67.90;7.33;;;;;;;24.30;61.53;98942.81;7308095;19;129198;-38
2023/09/13 00:08:44;;;;;;;117.70;9.83;;;;;;;24.29;60.94;98942.03;7308833;19;130266;-40
2023/09/13 00:11:09;;;;;;;33.73;5.83;;;;;;;24.28;60.87;98950.88;7307794;19;131241;-40
2023/09/13 00:13:34;;;;;;;35.57;6.43;;;;;;;24.26;60.16;98947.59;7308403;19;129299;-41
2023/09/13 00:16:00;;;;;;;71.87;8.07;;;;;;;24.26;61.37;98941.56;7308206;19;129217;-38
2023/09/13 00:18:26;;;;;;;66.57;7.33;;;;;;;24.26;59.90;98949.44;7306742;19;129895;-40
2023/09/13 00:20:53;;;;;;;63.13;7.73;;;;;;;24.26;60.98;98947.59;7306364;19;129757;-42
2023/09/13 00:23:18;;;;;;;29.73;5.70;;;;;;;24.12;61.10;98911.56;7309229;19;129440;-39
2023/09/13 00:25:44;;;;;;;45.40;6.47;;;;;;;24.24;60.74;98933.84;7307540;19;129257;-40
2023/09/13 00:28:09;;;;;;;66.00;7.27;;;;;;;24.24;60.31;98923.34;7308165;19;129968;-39
2023/09/13 00:30:35;;;;;;;37.23;6.17;;;;;;;24.14;60.18;98901.72;7305432;19;130208;-41
2023/09/13 00:33:00;;;;;;;53.53;8.10;;;;;;;24.18;60.00;98903.00;7306707;19;129287;-37
2023/09/13 00:35:26;;;;;;;82.13;8.10;;;;;;;24.27;60.80;98922.16;7308727;19;129344;-41
2023/09/13 00:37:51;;;;;;;72.47;8.47;;;;;;;24.27;61.42;98930.03;7308777;19;129397;-39
2023/09/13 00:40:17;;;;;;;55.83;7.63;;;;;;;24.15;61.29;98907.78;7305358;19;129593;-44
2023/09/13 00:42:43;;;;;;;38.37;6.90;;;;;;;24.25;60.69;98924.97;7307875;19;129469;-41
2023/09/13 00:45:08;;;;;;;98.50;10.10;;;;;;;24.26;60.24;98926.59;7306213;19;130205;-42
2023/09/13 00:47:34;;;;;;;41.33;7.30;;;;;;;24.26;61.29;98929.22;7308577;19;129375;-38
2023/09/13 00:50:00;;;;;;;61.43;8.23;;;;;;;24.23;60.61;98932.19;7305586;19;129467;-40
2023/09/13 00:52:26;;;;;;;40.15;7.18;;;;;;;24.26;60.30;98934.47;7305619;19;128976;-40
2023/09/13 00:54:53;;;;;;;103.30;10.20;;;;;;;24.24;61.04;98941.72;7306960;19;129111;-43
2023/09/13 00:57:20;;;;;;;54.80;8.07;;;;;;;24.24;60.37;98949.59;7308300;19;129653;-42
2023/09/13 00:59:45;;;;;;;50.60;8.18;;;;;;;24.25;60.66;98950.41;7307069;19;129680;-37
2023/09/13 01:02:11;;;;;;;68.07;8.37;;;;;;;24.26;61.11;98962.56;7306839;19;129461;-38
2023/09/13 01:04:38;;;;;;;87.53;9.43;;;;;;;24.24;61.15;98954.84;7307138;19;129474;-41
2023/09/13 01:07:06;;;;;;;56.17;8.32;;;;;;;24.11;60.70;98941.44;7308559;19;129484;-42
2023/09/13 01:09:32;;;;;;;43.35;7.43;;;;;;;24.24;61.05;98960.13;7311974;19;130094;-41
2023/09/13 01:11:58;;;;;;;68.05;8.40;;;;;;;24.26;60.88;98988.84;7313568;19;128856;-42
2023/09/13 01:14:23;;;;;;;72.80;8.83;;;;;;;24.27;60.03;99035.94;7313361;19;129607;-40
2023/09/13 01:17:02;;;;;;;60.03;8.27;;;;;;;24.27;62.33;99059.59;7314678;19;129972;-40
2023/09/13 01:19:51;;;;;;;49.67;7.55;;;;;;;24.27;60.83;99041.19;7313418;19;129093;-37
2023/09/13 01:22:53;;;;;;;65.30;9.32;;;;;;;24.27;62.50;99064.03;7313632;19;129044;-42
2023/09/13 01:25:39;;;;;;;86.60;9.85;;;;;;;24.26;62.71;99038.75;7313175;19;130252;-44
2023/09/13 01:28:39;;;;;;;63.65;8.77;;;;;;;24.26;62.91;99055.31;7314375;19;129450;-38
2023/09/13 01:31:07;;;;;;;58.75;8.48;;;;;;;24.25;61.29;99035.28;7309448;19;130517;-42
2023/09/13 01:33:33;;;;;;;44.92;8.07;;;;;;;24.25;61.23;99022.16;7313195;19;129140;-41
2023/09/13 01:35:59;;;;;;;87.77;9.73;;;;;;;24.25;60.99;99014.28;7314060;19;129540;-41
2023/09/13 01:38:24;;;;;;;66.33;8.57;;;;;;;24.25;60.89;99024.78;7311966;19;129202;-39
2023/09/13 01:40:52;;;;;;;67.23;8.83;;;;;;;24.26;61.10;99012.47;7312745;19;129196;-38
2023/09/13 01:43:19;;;;;;;45.53;7.93;;;;;;;24.27;61.05;99016.72;7314702;19;129360;-42
2023/09/13 01:45:46;;;;;;;38.72;7.35;;;;;;;24.27;60.36;99020.19;7311796;19;129583;-40
2023/09/13 01:48:13;;;;;;;59.60;8.23;;;;;;;24.29;59.81;99022.63;7310447;19;129385;-42
2023/09/13 01:50:39;;;;;;;82.25;9.07;;;;;;;24.31;60.38;99029.34;7311444;19;129653;-42
2023/09/13 01:53:04;;;;;;;55.47;8.63;;;;;;;24.29;61.22;99028.72;7312623;19;130005;-37
2023/09/13 01:55:33;;;;;;;67.50;9.67;;;;;;;24.30;61.67;99024.25;7312597;19;130219;-41
2023/09/13 01:57:59;;;;;;;72.80;9.50;;;;;;;24.27;60.53;99021.97;7312558;19;129333;-42
2023/09/13 02:00:24;;;;;;;50.23;8.07;;;;;;;24.27;60.88;99035.94;7310996;19;128986;-39
2023/09/13 02:02:50;;;;;;;54.57;8.53;;;;;;;24.24;61.34;99030.22;7314023;19;129244;-39
2023/09/13 02:05:15;;;;;;;43.30;7.57;;;;;;;24.27;60.55;99033.31;7312813;19;130617;-43
2023/09/13 02:07:40;;;;;;;64.03;8.60;;;;;;;24.28;60.14;99019.19;7312435;19;130876;-38
2023/09/13 02:10:06;;;;;;;88.60;9.63;;;;;;;24.29;61.11;99026.09;7310875;19;131744;-41
2023/09/13 02:12:32;;;;;;;49.37;7.67;;;;;;;24.30;60.43;99017.22;7311091;19;129396;-40
2023/09/13 02:14:57;;;;;;;47.03;7.63;;;;;;;24.28;61.40;99013.94;7312805;19;129394;-41
2023/09/13 02:17:22;;;;;;;64.97;8.83;;;;;;;24.28;61.63;99045.47;7312970;19;129114;-38
2023/09/13 02:19:49;;;;;;;41.27;7.57;;;;;;;24.27;60.82;99016.72;7310839;19;129768;-39
2023/09/13 02:22:14;;;;;;;54.00;8.27;;;;;;;24.27;61.26;98999.16;7311352;19;129453;-38
2023/09/13 02:24:40;;;;;;;74.50;9.53;;;;;;;24.27;61.25;98996.53;7307031;19;129486;-44
2023/09/13 02:27:05;;;;;;;82.20;9.50;;;;;;;24.28;62.02;99003.41;7309784;19;129296;-41
2023/09/13 02:29:31;;;;;;;53.40;8.20;;;;;;;24.28;61.63;98985.03;7311720;19;129218;-39
2023/09/13 02:31:56;;;;;;;54.80;8.70;;;;;;;24.29;62.15;98984.06;7310663;19;129051;-43
2023/09/13 02:34:22;;;;;;;39.20;7.33;;;;;;;24.29;61.75;98973.56;7310058;19;129482;-40
2023/09/13 02:36:47;;;;;;;63.53;8.90;;;;;;;24.18;62.28;98950.28;7310644;19;129961;-43
2023/09/13 02:39:35;;;;;;;50.13;8.77;;;;;;;24.17;63.41;98945.19;7311291;19;129038;-40
2023/09/13 02:42:05;;;;;;;70.13;9.55;;;;;;;24.28;62.45;98958.75;7310028;19;129459;-41
2023/09/13 02:44:31;;;;;;;54.80;7.90;;;;;;;24.29;61.75;98963.03;7311551;19;129359;-42
2023/09/13 02:46:57;;;;;;;61.23;8.57;;;;;;;24.28;62.20;98955.31;7310737;19;129433;-43
2023/09/13 02:49:23;;;;;;;69.10;8.87;;;;;;;24.26;61.95;98979.13;7312420;19;129779;-39
2023/09/13 02:51:49;;;;;;;58.95;9.15;;;;;;;24.26;62.25;99017.72;7312185;19;130575;-41
2023/09/13 02:54:14;;;;;;;44.90;8.07;;;;;;;24.25;61.96;99040.53;7311177;19;130011;-37
2023/09/13 02:56:40;;;;;;;47.47;8.73;;;;;;;24.25;62.47;99029.22;7309434;19;130203;-36
2023/09/13 02:59:05;;;;;;;93.37;10.20;;;;;;;24.24;63.14;99024.97;7311871;19;129657;-42
2023/09/13 03:01:31;;;;;;;44.03;7.63;;;;;;;24.25;63.04;99039.72;7311169;19;129172;-38
2023/09/13 03:03:56;;;;;;;56.00;8.47;;;;;;;24.25;62.97;99034.47;7311662;19;131931;-41
2023/09/13 03:06:21;;;;;;;58.27;8.97;;;;;;;24.11;62.17;99001.03;7309723;19;129552;-37
2023/09/13 03:08:47;;;;;;;140.30;13.20;;;;;;;24.26;62.77;99009.84;7308362;19;128871;-44
2023/09/13 03:11:18;;;;;;;61.97;9.23;;;;;;;24.20;63.58;98995.59;7304231;19;129295;-43
2023/09/13 03:13:44;;;;;;;58.38;8.77;;;;;;;24.22;62.01;98993.59;7307383;19;129643;-40
2023/09/13 03:16:11;;;;;;;48.47;7.80;;;;;;;24.25;62.53;98998.50;7309578;19;129583;-40
2023/09/13 03:18:36;;;;;;;113.75;10.95;;;;;;;24.24;62.47;99012.66;7310062;19;129103;-37
2023/09/13 03:21:05;;;;;;;68.57;9.03;;;;;;;24.26;63.08;99000.13;7309110;19;131231;-38
2023/09/13 03:23:31;;;;;;;65.93;9.43;;;;;;;24.22;62.77;98988.34;7305248;19;130170;-41
2023/09/13 03:25:56;;;;;;;74.33;9.40;;;;;;;24.24;62.59;98991.63;7308792;19;129282;-37
2023/09/13 03:28:21;;;;;;;75.83;8.73;;;;;;;24.24;62.70;98996.06;7310743;19;128951;-40
2023/09/13 03:30:47;;;;;;;52.37;8.40;;;;;;;24.25;62.64;98998.50;7306032;19;129417;-41
2023/09/13 03:33:12;;;;;;;45.67;8.37;;;;;;;24.26;62.90;98989.63;7304063;19;130616;-36
2023/09/13 03:35:37;;;;;;;56.70;8.70;;;;;;;24.26;62.52;98988.84;7303282;19;130564;-40
2023/09/13 03:38:03;;;;;;;116.07;11.20;;;;;;;24.26;62.23;98988.84;7309982;19;128941;-41
2023/09/13 03:40:28;;;;;;;47.23;7.70;;;;;;;24.12;62.56;98961.47;7305298;19;130885;-39
2023/09/13 03:42:54;;;;;;;59.00;8.57;;;;;;;24.26;62.44;98984.38;7302837;19;130810;-45
2023/09/13 03:45:19;;;;;;;61.43;8.83;;;;;;;24.26;62.33;98984.38;7306511;19;129212;-38
2023/09/13 03:47:44;;;;;;;54.27;8.30;;;;;;;24.27;63.08;98987.84;7307767;19;130005;-42
2023/09/13 03:50:10;;;;;;;113.13;11.83;;;;;;;24.23;63.06;98976.00;7305990;19;129488;-40
2023/09/13 03:52:35;;;;;;;54.77;8.83;;;;;;;24.23;62.11;98989.16;7307255;19;129106;-42
2023/09/13 03:55:00;;;;;;;107.10;11.07;;;;;;;24.23;62.98;98989.97;7307546;19;131621;-42
2023/09/13 03:57:25;;;;;;;37.47;7.80;;;;;;;24.14;62.84;98980.50;7309278;19;130736;-41
2023/09/13 03:59:51;;;;;;;48.40;8.47;;;;;;;24.23;62.03;98994.41;7308592;19;130067;-36
2023/09/13 04:02:16;;;;;;;50.70;8.60;;;;;;;24.22;62.55;98998.03;7307672;19;129199;-41
2023/09/13 04:04:41;;;;;;;75.53;8.93;;;;;;;24.20;63.29;98979.81;7307109;19;129684;-35
2023/09/13 04:07:07;;;;;;;96.70;11.43;;;;;;;24.06;62.71;98956.91;7308147;19;129190;-44
2023/09/13 04:09:32;;;;;;;38.97;7.93;;;;;;;24.21;62.90;98986.69;7306727;19;129164;-37
2023/09/13 04:11:58;;;;;;;51.63;9.07;;;;;;;24.18;63.15;98976.53;7306022;19;129263;-41
2023/09/13 04:14:23;;;;;;;85.17;10.53;;;;;;;24.14;63.05;98975.25;7305087;19;130343;-43
2023/09/13 04:16:48;;;;;;;49.17;8.07;;;;;;;24.07;63.04;98968.22;7305942;19;130226;-39
2023/09/13 04:19:13;;;;;;;40.97;8.20;;;;;;;24.17;62.11;98980.16;7305435;19;129954;-40
2023/09/13 04:21:39;;;;;;;58.17;9.03;;;;;;;24.14;62.59;98975.25;7304766;19;129665;-42
2023/09/13 04:24:05;;;;;;;99.60;11.83;;;;;;;24.17;62.85;98974.09;7306652;19;129425;-39
2023/09/13 04:26:30;;;;;;;54.23;8.87;;;;;;;24.01;62.78;98959.25;7307010;19;129315;-41
2023/09/13 04:28:55;;;;;;;65.03;9.40;;;;;;;24.13;63.01;98973.59;7306636;19;130726;-41
2023/09/13 04:31:21;;;;;;;87.67;10.10;;;;;;;24.17;62.71;98972.28;7303531;19;129594;-40
2023/09/13 04:33:51;;;;;;;45.17;7.47;;;;;;;24.16;62.97;98978.50;7303538;19;129316;-40
2023/09/13 04:36:16;;;;;;;45.85;7.85;;;;;;;24.18;62.34;98992.31;7307811;19;129551;-41
2023/09/13 04:38:42;;;;;;;51.83;8.53;;;;;;;24.18;62.51;98984.41;7304510;19;129098;-41
2023/09/13 04:41:14;;;;;;;109.17;10.97;;;;;;;24.18;64.25;98991.50;7303948;19;129896;-36
2023/09/13 04:43:40;;;;;;;68.53;9.38;;;;;;;24.17;62.33;98995.94;7309379;19;129334;-38
2023/09/13 04:46:06;;;;;;;99.60;11.27;;;;;;;24.14;63.06;98985.78;7312288;19;129334;-42
2023/09/13 04:48:31;;;;;;;57.77;8.80;;;;;;;24.16;63.11;98991.66;7310651;19;130447;-39
2023/09/13 04:50:56;;;;;;;79.27;9.53;;;;;;;24.04;62.85;98974.66;7311054;19;130017;-40
2023/09/13 04:53:22;;;;;;;166.40;14.97;;;;;;;24.14;62.80;98996.28;7307023;19;129964;-40
2023/09/13 04:55:47;;;;;;;54.70;8.30;;;;;;;24.18;62.71;99002.81;7310854;19;130186;-38
2023/09/13 04:58:13;;;;;;;144.87;12.93;;;;;;;24.19;62.77;99009.72;7299794;19;130075;-36
2023/09/13 05:00:38;;;;;;;116.40;10.73;;;;;;;24.20;62.18;99002.63;7301056;19;131292;-42
2023/09/13 05:03:03;;;;;;;128.97;12.33;;;;;;;24.16;62.47;99009.22;7308483;19;131613;-41
2023/09/13 05:05:29;;;;;;;88.63;10.03;;;;;;;24.17;63.12;99011.69;7310689;19;131114;-39
2023/09/13 05:07:54;;;;;;;94.13;10.63;;;;;;;24.17;63.32;99001.19;7311208;19;129202;-41
2023/09/13 05:10:20;;;;;;;78.03;9.67;;;;;;;24.18;62.33;99002.81;7312479;19;128948;-43
2023/09/13 05:12:48;;;;;;;32.73;7.23;;;;;;;24.16;63.63;98996.91;7313179;19;130408;-37
2023/09/13 05:15:14;;;;;;;57.47;8.80;;;;;;;24.15;62.71;98992.66;7313709;19;129427;-41
2023/09/13 05:17:40;;;;;;;47.23;8.00;;;;;;;24.16;62.27;98994.28;7313920;19;128974;-40
2023/09/13 05:20:08;;;;;;;100.73;10.53;;;;;;;24.03;62.73;98973.00;7312030;19;129637;-39
2023/09/13 05:22:33;;;;;;;41.42;7.65;;;;;;;24.14;62.25;98998.91;7313031;19;131844;-39
2023/09/13 05:25:00;;;;;;;36.90;7.73;;;;;;;24.16;62.54;98999.53;7312801;19;128844;-37
2023/09/13 05:27:26;;;;;;;52.22;8.93;;;;;;;24.14;62.42;99005.94;7311026;19;131481;-38
2023/09/13 05:29:52;;;;;;;70.23;8.77;;;;;;;24.13;62.12;99007.75;7310755;19;130817;-39
2023/09/13 05:32:18;;;;;;;63.58;9.40;;;;;;;24.12;62.19;99014.00;7310939;19;131043;-38
2023/09/13 05:34:45;;;;;;;63.13;8.63;;;;;;;24.11;62.54;99007.09;7311386;19;129211;-41
2023/09/13 05:37:10;;;;;;;67.07;9.50;;;;;;;24.01;62.34;98982.03;7310681;19;129638;-36
2023/09/13 05:39:35;;;;;;;106.67;10.73;;;;;;;24.14;62.28;98996.28;7312971;19;130806;-43
2023/09/13 05:42:02;;;;;;;58.37;9.00;;;;;;;24.17;62.39;99009.06;7314190;19;129142;-45
2023/09/13 05:44:27;;;;;;;33.35;7.45;;;;;;;24.16;63.10;99004.78;7313556;19;130583;-41
2023/09/13 05:46:53;;;;;;;53.37;8.17;;;;;;;24.16;62.53;99002.16;7310382;19;129626;-43
2023/09/13 05:49:18;;;;;;;70.57;9.73;;;;;;;24.15;62.10;99003.16;7313101;19;129507;-39
2023/09/13 05:51:45;;;;;;;32.43;8.00;;;;;;;24.15;62.86;98997.91;7311823;19;130406;-40
2023/09/13 05:54:11;;;;;;;64.15;9.35;;;;;;;24.18;61.79;99002.00;7309687;19;129022;-37
2023/09/13 05:56:36;;;;;;;77.17;10.10;;;;;;;24.00;62.38;98973.34;7311709;19;129326;-42
2023/09/13 05:59:01;;;;;;;71.17;9.80;;;;;;;24.15;62.75;99013.66;7311170;19;129977;-38
2023/09/13 06:01:27;;;;;;;34.77;7.03;;;;;;;24.15;62.87;99018.09;7311028;19;129644;-43
2023/09/13 06:03:52;;;;;;;37.77;7.97;;;;;;;24.01;62.67;99001.25;7313838;19;133517;-38
2023/09/13 06:06:17;;;;;;;92.73;9.83;;;;;;;24.14;62.10;99026.97;7313771;19;129628;-42
2023/09/13 06:08:43;;;;;;;68.73;9.13;;;;;;;24.14;61.40;99019.91;7312734;19;130248;-45
2023/09/13 06:11:08;;;;;;;63.60;8.60;;;;;;;24.13;62.70;99015.63;7311963;19;129340;-38
2023/09/13 06:13:33;;;;;;;41.30;7.60;;;;;;;24.13;62.50;99023.50;7312301;19;129425;-41
2023/09/13 06:15:59;;;;;;;67.60;8.37;;;;;;;24.14;62.33;99021.72;7314343;19;130001;-37
2023/09/13 06:18:24;;;;;;;45.93;8.30;;;;;;;24.00;62.63;99012.72;7314458;19;129561;-37
2023/09/13 06:20:49;;;;;;;39.23;7.53;;;;;;;24.13;62.52;99026.13;7310049;19;130312;-41
2023/09/13 06:23:38;;;;;;;54.03;8.37;;;;;;;24.14;63.86;99019.91;7313102;19;129162;-41
2023/09/13 06:26:04;;;;;;;40.15;7.53;;;;;;;24.13;62.64;99026.13;7313595;19;129651;-38
2023/09/13 06:28:30;;;;;;;100.80;10.53;;;;;;;24.15;62.47;99024.16;7310978;19;129110;-44
2023/09/13 06:30:57;;;;;;;56.33;7.97;;;;;;;24.14;62.21;99021.72;7309574;19;129489;-44
2023/09/13 06:33:24;;;;;;;43.15;7.43;;;;;;;24.13;62.25;99031.38;7310317;19;129063;-41
2023/09/13 06:35:50;;;;;;;24.77;6.78;;;;;;;24.05;62.43;99006.97;7310468;19;129064;-41
2023/09/13 06:38:15;;;;;;;122.63;11.63;;;;;;;24.16;62.06;99040.75;7310408;19;131010;-41
2023/09/13 06:40:43;;;;;;;36.30;7.50;;;;;;;24.16;62.49;99052.06;7311441;19;129565;-38
2023/09/13 06:43:10;;;;;;;44.13;7.47;;;;;;;24.16;62.53;99052.06;7308959;19;129007;-41
2023/09/13 06:45:35;;;;;;;37.08;7.18;;;;;;;24.17;62.40;99042.38;7311767;19;129670;-41
2023/09/13 06:48:01;;;;;;;74.30;8.57;;;;;;;24.15;62.28;99042.56;7311603;19;129287;-42
2023/09/13 06:50:26;;;;;;;54.10;8.43;;;;;;;24.16;62.59;99052.06;7310018;19;130201;-41
2023/09/13 06:52:51;;;;;;;33.27;6.67;;;;;;;24.18;62.96;99055.34;7310706;19;129965;-39
2023/09/13 06:55:17;;;;;;;55.03;8.63;;;;;;;24.17;62.71;99058.97;7310474;19;129105;-37
2023/09/13 06:57:42;;;;;;;64.47;7.80;;;;;;;24.19;61.93;99064.88;7311766;19;129399;-44
2023/09/13 07:00:08;;;;;;;47.90;7.57;;;;;;;24.17;62.72;99064.22;7309986;19;129989;-36
2023/09/13 07:02:34;;;;;;;52.77;7.63;;;;;;;24.20;62.83;99063.88;7310804;19;129491;-43
2023/09/13 07:04:59;;;;;;;76.80;8.50;;;;;;;24.20;63.32;99063.88;7310354;19;129309;-42
2023/09/13 07:07:25;;;;;;;52.03;7.50;;;;;;;24.25;62.89;99069.44;7310631;19;129250;-43
2023/09/13 07:09:51;;;;;;;41.42;7.53;;;;;;;24.21;62.51;99065.50;7310681;19;131273;-38
2023/09/13 07:12:16;;;;;;;54.23;7.83;;;;;;;24.26;62.28;99065.03;7310920;19;128898;-38
2023/09/13 07:14:41;;;;;;;106.77;9.60;;;;;;;24.26;61.92;99067.66;7311195;19;129139;-44
2023/09/13 07:17:07;;;;;;;55.60;8.07;;;;;;;24.29;62.22;99062.88;7310567;19;129426;-39
2023/09/13 07:19:32;;;;;;;38.80;7.03;;;;;;;24.23;62.60;99068.78;7310667;19;129642;-39
2023/09/13 07:21:57;;;;;;;30.20;6.90;;;;;;;24.23;62.37;99066.16;7312377;19;129760;-38
2023/09/13 07:24:23;;;;;;;92.73;9.80;;;;;;;24.24;63.03;99070.44;7312461;19;129750;-41
2023/09/13 07:26:48;;;;;;;44.10;6.87;;;;;;;24.22;62.98;99071.59;7312864;19;129156;-37
2023/09/13 07:29:14;;;;;;;53.60;8.70;;;;;;;24.21;63.12;99076.00;7308459;19;129286;-41
2023/09/13 07:31:39;;;;;;;33.70;6.63;;;;;;;24.23;62.32;99079.28;7307590;19;129215;-39
2023/09/13 07:34:04;;;;;;;73.03;8.50;;;;;;;24.25;62.51;99087.00;7308836;19;129632;-43
2023/09/13 07:36:30;;;;;;;41.23;7.03;;;;;;;24.27;62.66;99091.13;7311521;19;129518;-41
2023/09/13 07:38:55;;;;;;;57.10;8.03;;;;;;;24.26;62.34;99084.19;7310262;19;129655;-37
2023/09/13 07:41:21;;;;;;;75.77;8.60;;;;;;;24.24;62.95;99091.47;7307610;19;129321;-41
2023/09/13 07:43:46;;;;;;;69.30;8.43;;;;;;;24.27;62.12;99091.13;7309622;19;129024;-38
2023/09/13 07:46:12;;;;;;;60.50;8.77;;;;;;;24.25;62.94;99100.13;7310390;19;129657;-39
2023/09/13 07:48:37;;;;;;;49.83;7.93;;;;;;;24.25;62.31;99092.25;7309169;19;129383;-43
2023/09/13 07:51:04;;;;;;;70.67;8.40;;;;;;;24.26;63.13;99104.44;7307460;19;129008;-38
2023/09/13 07:53:30;;;;;;;57.10;8.32;;;;;;;24.21;63.55;99097.03;7309661;19;129232;-39
2023/09/13 07:55:59;;;;;;;36.20;7.33;;;;;;;24.25;62.06;99103.59;7310951;19;129579;-38
2023/09/13 07:58:24;;;;;;;51.15;8.20;;;;;;;24.27;61.94;99108.69;7308962;19;130765;-39
2023/09/13 08:00:50;;;;;;;57.30;8.13;;;;;;;24.29;62.64;99110.16;7308948;19;129033;-38
2023/09/13 08:03:16;;;;;;;61.37;7.60;;;;;;;24.27;62.97;99112.13;7308093;19;129739;-40
2023/09/13 08:05:45;;;;;;;36.30;7.20;;;;;;;24.25;62.11;99114.09;7310970;19;130838;-41
2023/09/13 08:08:11;;;;;;;35.20;6.78;;;;;;;24.16;63.64;99109.84;7309352;19;129736;-42
2023/09/13 08:10:40;;;;;;;75.27;8.33;;;;;;;24.27;62.52;99127.91;7308444;19;130148;-38
2023/09/13 08:13:06;;;;;;;75.90;8.88;;;;;;;24.26;62.53;99130.69;7308403;19;129105;-40
2023/09/13 08:15:31;;;;;;;62.90;8.07;;;;;;;24.25;63.34;99127.25;7310131;19;130148;-40
2023/09/13 08:17:57;;;;;;;48.23;7.47;;;;;;;24.24;63.08;99122.97;7311424;19;129706;-40
2023/09/13 08:20:22;;;;;;;67.17;8.33;;;;;;;24.26;62.79;99126.25;7315543;19;130092;-40
2023/09/13 08:22:47;;;;;;;60.67;8.00;;;;;;;24.25;63.22;99115.91;7317696;19;129100;-39
2023/09/13 08:25:13;;;;;;;58.77;7.63;;;;;;;24.26;62.84;99120.97;7314254;19;129999;-39
2023/09/13 08:27:38;;;;;;;45.03;6.93;;;;;;;24.27;62.74;99127.91;7316047;19;130296;-39
2023/09/13 08:30:04;;;;;;;83.40;8.63;;;;;;;24.30;62.15;99134.59;7314677;19;129087;-36
2023/09/13 08:32:30;;;;;;;49.20;6.85;;;;;;;24.30;62.39;99132.81;7316607;19;129517;-40
2023/09/13 08:34:55;;;;;;;51.87;8.00;;;;;;;24.32;62.52;99130.84;7316987;19;130885;-43
2023/09/13 08:37:21;;;;;;;85.83;9.33;;;;;;;24.31;62.02;99139.69;7311115;19;129566;-40
2023/09/13 08:39:46;;;;;;;90.13;8.83;;;;;;;24.30;62.50;99137.22;7314167;19;129971;-36
2023/09/13 08:42:15;;;;;;;54.73;7.40;;;;;;;24.27;61.82;99143.66;7314580;19;128829;-42
2023/09/13 08:44:42;;;;;;;16.92;5.32;;;;;;;24.29;62.24;99146.13;7315655;19;129530;-39
2023/09/13 08:47:10;;;;;;;33.65;5.95;;;;;;;24.26;62.29;99146.47;7312787;19;130103;-35
2023/09/13 08:49:36;;;;;;;88.13;8.75;;;;;;;24.24;62.35;99144.00;7313796;19;129616;-40
2023/09/13 08:52:02;;;;;;;45.93;6.63;;;;;;;24.23;62.02;99147.59;7315890;19;131297;-43
2023/09/13 08:54:29;;;;;;;62.80;6.97;;;;;;;24.28;62.67;99158.41;7310676;19;131523;-39
2023/09/13 08:56:56;;;;;;;52.20;6.60;;;;;;;24.28;62.20;99162.84;7314969;19;130543;-36
2023/09/13 08:59:21;;;;;;;99.40;8.43;;;;;;;24.25;62.06;99161.38;7312560;19;129774;-42
2023/09/13 09:01:49;;;;;;;40.10;5.40;;;;;;;24.24;61.77;99159.75;7313897;19;128928;-43
2023/09/13 09:04:20;;;;;;;32.88;5.32;;;;;;;24.23;62.11;99158.09;7316184;19;129516;-40
2023/09/13 09:06:46;;;;;;;17.70;4.57;;;;;;;24.23;61.26;99176.50;7313526;19;129864;-40
2023/09/13 09:09:19;;;;;;;72.10;6.60;;;;;;;24.23;62.49;99168.63;7313316;19;130092;-41
2023/09/13 09:11:49;;;;;;;69.55;6.40;;;;;;;24.25;61.71;99171.06;7310355;19;130303;-41
2023/09/13 09:14:15;;;;;;;36.65;4.63;;;;;;;24.25;61.64;99168.44;7313117;19;129503;-39
2023/09/13 09:16:42;;;;;;;37.77;4.67;;;;;;;24.25;60.61;99166.66;7314593;19;130319;-42
2023/09/13 09:19:08;;;;;;;66.45;5.78;;;;;;;24.24;61.04;99161.56;7312751;19;129811;-42
2023/09/13 09:21:35;;;;;;;88.13;6.67;;;;;;;24.25;60.26;99166.66;7310479;19;129355;-38
2023/09/13 09:24:00;;;;;;;35.40;4.38;;;;;;;24.12;61.31;99145.31;7313088;19;130471;-43
2023/09/13 09:26:26;;;;;;;70.93;6.33;;;;;;;24.25;60.96;99173.69;7311669;19;129821;-40
2023/09/13 09:28:51;;;;;;;52.23;5.43;;;;;;;24.23;60.59;99173.88;7311958;19;129229;-41
2023/09/13 09:31:19;;;;;;;116.83;8.90;;;;;;;24.23;60.42;99173.88;7310096;19;128926;-39
2023/09/13 09:33:45;;;;;;;25.48;3.90;;;;;;;24.22;60.69;99171.41;7310206;19;130113;-41
2023/09/13 09:36:13;;;;;;;50.47;5.33;;;;;;;24.20;60.90;99168.94;7312658;19;129426;-42
2023/09/13 09:38:43;;;;;;;71.88;6.40;;;;;;;24.25;61.94;99176.31;7313058;19;130086;-42
2023/09/13 09:41:08;;;;;;;56.17;5.65;;;;;;;24.26;60.89;99173.53;7310506;19;129186;-43
2023/09/13 09:43:34;;;;;;;48.57;5.13;;;;;;;24.25;60.15;99169.28;7313202;19;129372;-42
2023/09/13 09:45:59;;;;;;;33.73;4.37;;;;;;;24.26;60.77;99178.78;7313472;19;130249;-40
2023/09/13 09:48:26;;;;;;;74.60;6.67;;;;;;;24.23;60.65;99165.97;7313530;19;129144;-42
2023/09/13 09:50:53;;;;;;;80.88;6.63;;;;;;;24.22;60.90;99161.72;7312205;19;129903;-44
2023/09/13 09:53:19;;;;;;;;;;;;;;;24.18;62.71;99159.63;7313709;19;129505;-42
2023/09/13 09:55:45;;;;;;;50.00;5.15;;;;;;;24.09;60.53;99155.34;7312905;19;130333;-43
2023/09/13 09:58:11;;;;;;;35.70;4.40;;;;;;;24.19;60.29;99166.50;7313056;19;130097;-43
2023/09/13 10:00:45;;;;;;;71.20;5.77;;;;;;;24.18;61.63;99176.16;7312125;19;129090;-37
2023/09/13 10:03:17;;;;;;;35.00;4.40;;;;;;;24.20;60.47;99179.47;7313026;19;129466;-39
2023/09/13 10:05:51;;;;;;;35.78;4.70;;;;;;;24.23;61.82;99192.25;7310706;19;129428;-41
2023/09/13 10:08:16;;;;;;;7.57;3.28;;;;;;;24.22;60.87;99189.78;7308739;19;129132;-45
2023/09/13 10:10:42;;;;;;;43.80;4.77;;;;;;;24.23;60.38;99194.88;7311546;19;129199;-36
2023/09/13 10:13:13;;;;;;;62.70;5.83;;;;;;;24.19;62.11;99193.59;7310999;19;130048;-40
2023/09/13 10:15:38;;;;;;;41.08;4.93;;;;;;;24.21;60.19;99207.34;7313317;19;130000;-41
2023/09/13 10:18:06;;;;;;;100.33;7.83;;;;;;;24.23;60.43;99208.03;7310870;19;130502;-43
2023/09/13 10:20:34;;;;;;;67.00;6.13;;;;;;;24.23;61.67;99209.81;7311112;19;130009;-41
2023/09/13 10:23:01;;;;;;;74.63;6.10;;;;;;;24.22;61.17;99216.91;7313101;19;129446;-43
2023/09/13 10:25:31;;;;;;;54.33;5.30;;;;;;;24.24;61.64;99216.72;7313212;19;129209;-39
2023/09/13 10:27:59;;;;;;;51.47;5.32;;;;;;;24.18;60.86;99212.16;7312656;19;129549;-38
2023/09/13 10:30:28;;;;;;;60.47;5.93;;;;;;;24.23;61.80;99218.53;7307957;19;129765;-36
2023/09/13 10:32:58;;;;;;;69.70;5.70;;;;;;;24.23;61.29;99221.16;7310309;19;131225;-38
2023/09/13 10:35:25;;;;;;;52.97;5.28;;;;;;;24.25;60.34;99223.63;7311842;19;131926;-39
2023/09/13 10:37:56;;;;;;;42.90;4.85;;;;;;;24.14;61.18;99214.28;7313631;19;129373;-43
2023/09/13 10:40:23;;;;;;;33.30;4.63;;;;;;;24.23;61.21;99220.31;7308474;19;128976;-40
2023/09/13 10:42:49;;;;;;;74.38;6.15;;;;;;;24.23;61.43;99222.94;7309707;19;129590;-39
2023/09/13 10:45:18;;;;;;;59.97;5.30;;;;;;;24.25;61.10;99224.44;7310524;19;130274;-42
2023/09/13 10:47:49;;;;;;;31.15;3.85;;;;;;;24.24;60.31;99227.25;7311342;19;129474;-40
2023/09/13 10:50:15;;;;;;;30.70;3.63;;;;;;;24.24;60.52;99225.44;7310708;19;129551;-44
2023/09/13 10:52:42;;;;;;;48.20;4.93;;;;;;;24.21;60.81;99223.13;7309575;19;129153;-38
2023/09/13 10:55:09;;;;;;;75.45;6.45;;;;;;;24.25;60.86;99224.44;7312257;19;131784;-42
2023/09/13 10:57:35;;;;;;;;;;;;;;;24.28;62.53;99234.63;7313015;19;129313;-39
2023/09/13 11:00:08;;;;;;;46.63;4.78;;;;;;;24.26;60.70;99236.56;7309624;19;129609;-43
2023/09/13 11:02:34;;;;;;;42.15;4.90;;;;;;;24.25;60.83;99237.56;7311259;19;130887;-37
2023/09/13 11:04:59;;;;;;;102.43;7.23;;;;;;;24.25;60.29;99237.56;7310132;19;130848;-41
2023/09/13 11:07:25;;;;;;;35.67;4.60;;;;;;;24.25;61.00;99240.19;7312672;19;129647;-40
2023/09/13 11:09:51;;;;;;;36.80;4.27;;;;;;;24.22;61.27;99227.41;7310384;19;129657;-39
2023/09/13 11:12:16;;;;;;;14.07;3.60;;;;;;;24.23;61.40;99238.72;7311278;19;129094;-41
2023/09/13 11:14:50;;;;;;;56.30;4.77;;;;;;;24.26;62.21;99241.03;7306426;19;130188;-40